sensor_id;sensor_type;location;lat;lon;timestamp;P1;durP1;ratioP1;P2;durP2;ratioP2
70320;SDS011;61127;55.826;37.046;2023-05-29T00:00:30;3.78;;;1.90;;
70320;SDS011;61127;55.826;37.046;2023-05-29T00:02:57;6.00;;;1.98;;
70320;SDS011;61127;55.826;37.046;2023-05-29T00:05:23;3.83;;;1.83;;
70320;SDS011;61127;55.826;37.046;2023-05-29T00:07:50;4.80;;;2.17;;
70320;SDS011;61127;55.826;37.046;2023-05-29T00:10:16;2.78;;;1.67;;
70320;SDS011;61127;55.826;37.046;2023-05-29T00:12:42;8.55;;;2.17;;
70320;SDS011;61127;55.826;37.046;2023-05-29T00:15:08;5.53;;;1.87;;
70320;SDS011;61127;55.826;37.046;2023-05-29T00:17:36;4.97;;;1.63;;
70320;SDS011;61127;55.826;37.046;2023-05-29T00:20:02;3.25;;;1.70;;
70320;SDS011;61127;55.826;37.046;2023-05-29T00:22:32;4.78;;;2.08;;
70320;SDS011;61127;55.826;37.046;2023-05-29T00:24:58;5.00;;;2.00;;
70320;SDS011;61127;55.826;37.046;2023-05-29T00:27:24;7.68;;;3.05;;
70320;SDS011;61127;55.826;37.046;2023-05-29T00:29:51;6.93;;;2.20;;
70320;SDS011;61127;55.826;37.046;2023-05-29T00:32:17;5.50;;;1.98;;
70320;SDS011;61127;55.826;37.046;2023-05-29T00:34:44;5.07;;;2.13;;
70320;SDS011;61127;55.826;37.046;2023-05-29T00:37:10;5.85;;;1.92;;
70320;SDS011;61127;55.826;37.046;2023-05-29T00:39:36;3.85;;;1.85;;
70320;SDS011;61127;55.826;37.046;2023-05-29T00:42:02;7.25;;;2.20;;
70320;SDS011;61127;55.826;37.046;2023-05-29T00:44:28;4.88;;;1.83;;
70320;SDS011;61127;55.826;37.046;2023-05-29T00:46:54;4.93;;;2.15;;
70320;SDS011;61127;55.826;37.046;2023-05-29T00:49:21;3.75;;;2.08;;
70320;SDS011;61127;55.826;37.046;2023-05-29T00:51:48;7.57;;;1.95;;
70320;SDS011;61127;55.826;37.046;2023-05-29T00:54:20;5.60;;;1.88;;
70320;SDS011;61127;55.826;37.046;2023-05-29T00:56:48;6.25;;;2.08;;
70320;SDS011;61127;55.826;37.046;2023-05-29T00:59:15;4.45;;;1.52;;
70320;SDS011;61127;55.826;37.046;2023-05-29T01:01:41;4.70;;;1.95;;
70320;SDS011;61127;55.826;37.046;2023-05-29T01:04:08;8.13;;;2.22;;
70320;SDS011;61127;55.826;37.046;2023-05-29T01:06:38;4.35;;;2.08;;
70320;SDS011;61127;55.826;37.046;2023-05-29T01:09:06;5.38;;;1.90;;
70320;SDS011;61127;55.826;37.046;2023-05-29T01:30:53;7.15;;;2.10;;
70320;SDS011;61127;55.826;37.046;2023-05-29T01:33:23;4.18;;;1.98;;
70320;SDS011;61127;55.826;37.046;2023-05-29T01:35:50;3.50;;;1.70;;
70320;SDS011;61127;55.826;37.046;2023-05-29T01:38:16;7.10;;;2.95;;
70320;SDS011;61127;55.826;37.046;2023-05-29T01:40:43;3.80;;;1.80;;
70320;SDS011;61127;55.826;37.046;2023-05-29T01:43:10;5.78;;;2.15;;
70320;SDS011;61127;55.826;37.046;2023-05-29T01:45:38;4.28;;;1.70;;
70320;SDS011;61127;55.826;37.046;2023-05-29T01:48:06;5.05;;;1.90;;
70320;SDS011;61127;55.826;37.046;2023-05-29T01:50:33;6.18;;;2.20;;
70320;SDS011;61127;55.826;37.046;2023-05-29T01:53:00;5.05;;;1.83;;
70320;SDS011;61127;55.826;37.046;2023-05-29T01:55:27;3.58;;;1.85;;
70320;SDS011;61127;55.826;37.046;2023-05-29T01:57:53;5.65;;;2.22;;
70320;SDS011;61127;55.826;37.046;2023-05-29T02:00:20;5.90;;;1.80;;
70320;SDS011;61127;55.826;37.046;2023-05-29T02:02:47;3.67;;;1.53;;
70320;SDS011;61127;55.826;37.046;2023-05-29T02:05:14;5.72;;;2.10;;
70320;SDS011;61127;55.826;37.046;2023-05-29T02:07:40;5.53;;;1.85;;
70320;SDS011;61127;55.826;37.046;2023-05-29T02:10:07;4.05;;;1.77;;
70320;SDS011;61127;55.826;37.046;2023-05-29T02:12:33;5.45;;;1.90;;
70320;SDS011;61127;55.826;37.046;2023-05-29T02:15:00;5.27;;;1.67;;
70320;SDS011;61127;55.826;37.046;2023-05-29T02:17:32;3.95;;;1.77;;
70320;SDS011;61127;55.826;37.046;2023-05-29T02:20:01;4.53;;;1.85;;
70320;SDS011;61127;55.826;37.046;2023-05-29T02:22:31;5.28;;;1.70;;
70320;SDS011;61127;55.826;37.046;2023-05-29T02:24:58;3.72;;;1.80;;
70320;SDS011;61127;55.826;37.046;2023-05-29T02:27:26;6.10;;;2.07;;
70320;SDS011;61127;55.826;37.046;2023-05-29T02:29:52;3.58;;;1.85;;
70320;SDS011;61127;55.826;37.046;2023-05-29T02:32:20;4.05;;;1.80;;
70320;SDS011;61127;55.826;37.046;2023-05-29T02:34:48;4.90;;;1.58;;
70320;SDS011;61127;55.826;37.046;2023-05-29T02:37:15;3.50;;;1.63;;
70320;SDS011;61127;55.826;37.046;2023-05-29T02:39:42;4.73;;;1.73;;
70320;SDS011;61127;55.826;37.046;2023-05-29T02:42:08;5.68;;;1.60;;
70320;SDS011;61127;55.826;37.046;2023-05-29T02:44:35;3.72;;;1.85;;
70320;SDS011;61127;55.826;37.046;2023-05-29T02:47:01;4.32;;;1.58;;
70320;SDS011;61127;55.826;37.046;2023-05-29T02:49:27;4.30;;;1.80;;
70320;SDS011;61127;55.826;37.046;2023-05-29T02:51:53;4.20;;;1.70;;
70320;SDS011;61127;55.826;37.046;2023-05-29T02:54:25;3.38;;;1.60;;
70320;SDS011;61127;55.826;37.046;2023-05-29T02:56:52;4.35;;;1.88;;
70320;SDS011;61127;55.826;37.046;2023-05-29T02:59:18;4.07;;;1.75;;
70320;SDS011;61127;55.826;37.046;2023-05-29T03:01:44;4.38;;;1.98;;
70320;SDS011;61127;55.826;37.046;2023-05-29T03:04:11;6.03;;;1.60;;
70320;SDS011;61127;55.826;37.046;2023-05-29T03:06:37;3.25;;;1.67;;
70320;SDS011;61127;55.826;37.046;2023-05-29T03:09:06;3.33;;;1.67;;
70320;SDS011;61127;55.826;37.046;2023-05-29T03:11:32;2.83;;;1.67;;
70320;SDS011;61127;55.826;37.046;2023-05-29T03:13:58;4.63;;;1.60;;
70320;SDS011;61127;55.826;37.046;2023-05-29T03:16:25;3.93;;;1.43;;
70320;SDS011;61127;55.826;37.046;2023-05-29T03:18:55;2.90;;;1.40;;
70320;SDS011;61127;55.826;37.046;2023-05-29T03:21:21;3.85;;;1.65;;
70320;SDS011;61127;55.826;37.046;2023-05-29T03:23:47;3.97;;;1.63;;
70320;SDS011;61127;55.826;37.046;2023-05-29T03:26:14;3.97;;;1.50;;
70320;SDS011;61127;55.826;37.046;2023-05-29T03:28:42;3.77;;;1.63;;
70320;SDS011;61127;55.826;37.046;2023-05-29T03:31:09;3.30;;;1.35;;
70320;SDS011;61127;55.826;37.046;2023-05-29T03:33:35;5.18;;;1.50;;
70320;SDS011;61127;55.826;37.046;2023-05-29T03:36:09;3.00;;;1.35;;
70320;SDS011;61127;55.826;37.046;2023-05-29T03:38:36;2.85;;;1.60;;
70320;SDS011;61127;55.826;37.046;2023-05-29T03:41:02;3.47;;;1.50;;
70320;SDS011;61127;55.826;37.046;2023-05-29T03:43:28;4.68;;;1.40;;
70320;SDS011;61127;55.826;37.046;2023-05-29T03:45:54;4.28;;;1.40;;
70320;SDS011;61127;55.826;37.046;2023-05-29T03:48:21;3.70;;;1.40;;
70320;SDS011;61127;55.826;37.046;2023-05-29T03:50:47;2.92;;;1.73;;
70320;SDS011;61127;55.826;37.046;2023-05-29T03:53:20;3.13;;;1.30;;
70320;SDS011;61127;55.826;37.046;2023-05-29T03:55:46;2.33;;;1.27;;
70320;SDS011;61127;55.826;37.046;2023-05-29T03:58:13;2.60;;;1.30;;
70320;SDS011;61127;55.826;37.046;2023-05-29T04:00:40;4.43;;;1.42;;
70320;SDS011;61127;55.826;37.046;2023-05-29T04:03:08;3.70;;;1.35;;
70320;SDS011;61127;55.826;37.046;2023-05-29T04:05:34;2.87;;;1.43;;
70320;SDS011;61127;55.826;37.046;2023-05-29T04:08:00;3.63;;;1.50;;
70320;SDS011;61127;55.826;37.046;2023-05-29T04:10:26;3.38;;;1.65;;
70320;SDS011;61127;55.826;37.046;2023-05-29T04:12:52;5.30;;;1.70;;
70320;SDS011;61127;55.826;37.046;2023-05-29T04:15:18;3.17;;;1.33;;
70320;SDS011;61127;55.826;37.046;2023-05-29T04:17:45;3.30;;;1.35;;
70320;SDS011;61127;55.826;37.046;2023-05-29T04:20:11;2.50;;;1.20;;
70320;SDS011;61127;55.826;37.046;2023-05-29T04:22:38;3.30;;;1.33;;
70320;SDS011;61127;55.826;37.046;2023-05-29T04:25:04;4.05;;;1.42;;
70320;SDS011;61127;55.826;37.046;2023-05-29T04:27:31;3.97;;;1.50;;
70320;SDS011;61127;55.826;37.046;2023-05-29T04:29:59;5.10;;;2.03;;
70320;SDS011;61127;55.826;37.046;2023-05-29T04:32:31;4.70;;;1.85;;
70320;SDS011;61127;55.826;37.046;2023-05-29T04:35:01;4.93;;;2.28;;
70320;SDS011;61127;55.826;37.046;2023-05-29T04:37:29;5.18;;;2.13;;
70320;SDS011;61127;55.826;37.046;2023-05-29T04:39:58;6.37;;;2.17;;
70320;SDS011;61127;55.826;37.046;2023-05-29T04:42:26;7.80;;;2.28;;
70320;SDS011;61127;55.826;37.046;2023-05-29T04:44:52;6.80;;;2.58;;
70320;SDS011;61127;55.826;37.046;2023-05-29T04:47:19;6.10;;;2.45;;
70320;SDS011;61127;55.826;37.046;2023-05-29T04:49:47;6.88;;;2.67;;
70320;SDS011;61127;55.826;37.046;2023-05-29T04:52:15;5.93;;;2.50;;
70320;SDS011;61127;55.826;37.046;2023-05-29T04:54:41;7.60;;;2.60;;
70320;SDS011;61127;55.826;37.046;2023-05-29T04:57:10;5.68;;;2.58;;
70320;SDS011;61127;55.826;37.046;2023-05-29T04:59:36;6.15;;;2.53;;
70320;SDS011;61127;55.826;37.046;2023-05-29T05:02:02;8.43;;;3.00;;
70320;SDS011;61127;55.826;37.046;2023-05-29T05:04:28;7.40;;;2.90;;
70320;SDS011;61127;55.826;37.046;2023-05-29T05:06:55;7.45;;;3.50;;
70320;SDS011;61127;55.826;37.046;2023-05-29T05:09:22;7.65;;;3.00;;
70320;SDS011;61127;55.826;37.046;2023-05-29T05:11:49;6.88;;;3.35;;
70320;SDS011;61127;55.826;37.046;2023-05-29T05:14:16;7.43;;;3.55;;
70320;SDS011;61127;55.826;37.046;2023-05-29T05:16:42;7.63;;;3.30;;
70320;SDS011;61127;55.826;37.046;2023-05-29T05:19:10;5.53;;;3.05;;
70320;SDS011;61127;55.826;37.046;2023-05-29T05:21:39;5.15;;;2.63;;
70320;SDS011;61127;55.826;37.046;2023-05-29T05:24:05;6.10;;;3.03;;
70320;SDS011;61127;55.826;37.046;2023-05-29T05:26:32;5.28;;;2.70;;
70320;SDS011;61127;55.826;37.046;2023-05-29T05:28:58;4.13;;;2.30;;
70320;SDS011;61127;55.826;37.046;2023-05-29T05:31:27;5.10;;;2.40;;
70320;SDS011;61127;55.826;37.046;2023-05-29T05:33:53;5.90;;;2.40;;
70320;SDS011;61127;55.826;37.046;2023-05-29T05:36:19;5.40;;;2.55;;
70320;SDS011;61127;55.826;37.046;2023-05-29T05:38:46;6.40;;;2.33;;
70320;SDS011;61127;55.826;37.046;2023-05-29T05:41:14;5.53;;;2.20;;
70320;SDS011;61127;55.826;37.046;2023-05-29T05:43:40;5.57;;;2.30;;
70320;SDS011;61127;55.826;37.046;2023-05-29T05:46:27;7.80;;;2.78;;
70320;SDS011;61127;55.826;37.046;2023-05-29T05:48:53;3.40;;;1.90;;
70320;SDS011;61127;55.826;37.046;2023-05-29T05:51:23;3.73;;;1.70;;
70320;SDS011;61127;55.826;37.046;2023-05-29T05:53:50;2.33;;;1.40;;
70320;SDS011;61127;55.826;37.046;2023-05-29T05:56:17;3.80;;;1.27;;
70320;SDS011;61127;55.826;37.046;2023-05-29T05:58:43;5.25;;;1.25;;
70320;SDS011;61127;55.826;37.046;2023-05-29T06:01:10;3.35;;;1.30;;
70320;SDS011;61127;55.826;37.046;2023-05-29T06:03:37;3.67;;;1.50;;
70320;SDS011;61127;55.826;37.046;2023-05-29T06:06:08;3.08;;;1.25;;
70320;SDS011;61127;55.826;37.046;2023-05-29T06:08:38;2.25;;;1.30;;
70320;SDS011;61127;55.826;37.046;2023-05-29T06:11:06;2.83;;;1.58;;
70320;SDS011;61127;55.826;37.046;2023-05-29T06:13:35;1.20;;;1.08;;
70320;SDS011;61127;55.826;37.046;2023-05-29T06:16:23;1.43;;;0.77;;
70320;SDS011;61127;55.826;37.046;2023-05-29T06:18:50;0.77;;;0.70;;
70320;SDS011;61127;55.826;37.046;2023-05-29T06:21:17;0.98;;;0.70;;
70320;SDS011;61127;55.826;37.046;2023-05-29T06:23:51;1.75;;;0.70;;
70320;SDS011;61127;55.826;37.046;2023-05-29T06:26:18;1.88;;;0.80;;
70320;SDS011;61127;55.826;37.046;2023-05-29T06:28:44;2.93;;;0.87;;
70320;SDS011;61127;55.826;37.046;2023-05-29T06:31:10;4.32;;;0.80;;
70320;SDS011;61127;55.826;37.046;2023-05-29T06:33:36;1.45;;;0.90;;
70320;SDS011;61127;55.826;37.046;2023-05-29T06:36:04;1.42;;;0.80;;
70320;SDS011;61127;55.826;37.046;2023-05-29T06:38:31;3.15;;;0.75;;
70320;SDS011;61127;55.826;37.046;2023-05-29T06:40:57;1.60;;;0.80;;
70320;SDS011;61127;55.826;37.046;2023-05-29T06:43:24;2.22;;;0.68;;
70320;SDS011;61127;55.826;37.046;2023-05-29T06:45:55;1.83;;;0.70;;
70320;SDS011;61127;55.826;37.046;2023-05-29T06:48:22;1.52;;;0.90;;
70320;SDS011;61127;55.826;37.046;2023-05-29T06:50:48;2.40;;;1.00;;
70320;SDS011;61127;55.826;37.046;2023-05-29T06:53:36;1.20;;;0.87;;
70320;SDS011;61127;55.826;37.046;2023-05-29T06:56:06;1.30;;;1.00;;
70320;SDS011;61127;55.826;37.046;2023-05-29T06:58:33;2.22;;;1.00;;
70320;SDS011;61127;55.826;37.046;2023-05-29T07:01:00;2.47;;;0.90;;
70320;SDS011;61127;55.826;37.046;2023-05-29T07:03:53;2.55;;;0.95;;
70320;SDS011;61127;55.826;37.046;2023-05-29T07:06:19;3.87;;;1.00;;
70320;SDS011;61127;55.826;37.046;2023-05-29T07:08:46;2.05;;;0.90;;
70320;SDS011;61127;55.826;37.046;2023-05-29T07:11:12;1.63;;;0.90;;
70320;SDS011;61127;55.826;37.046;2023-05-29T07:13:38;1.63;;;1.00;;
70320;SDS011;61127;55.826;37.046;2023-05-29T07:16:08;3.38;;;1.13;;
70320;SDS011;61127;55.826;37.046;2023-05-29T07:18:35;2.23;;;0.80;;
70320;SDS011;61127;55.826;37.046;2023-05-29T07:21:01;2.20;;;0.80;;
70320;SDS011;61127;55.826;37.046;2023-05-29T07:23:28;2.60;;;1.02;;
70320;SDS011;61127;55.826;37.046;2023-05-29T07:25:58;1.17;;;0.80;;
70320;SDS011;61127;55.826;37.046;2023-05-29T07:28:28;1.75;;;0.90;;
70320;SDS011;61127;55.826;37.046;2023-05-29T07:30:54;2.50;;;0.80;;
70320;SDS011;61127;55.826;37.046;2023-05-29T07:33:21;2.20;;;0.90;;
70320;SDS011;61127;55.826;37.046;2023-05-29T07:35:47;1.60;;;0.80;;
70320;SDS011;61127;55.826;37.046;2023-05-29T07:38:13;1.42;;;0.80;;
70320;SDS011;61127;55.826;37.046;2023-05-29T07:40:41;2.20;;;0.85;;
70320;SDS011;61127;55.826;37.046;2023-05-29T07:43:10;2.20;;;0.70;;
70320;SDS011;61127;55.826;37.046;2023-05-29T07:45:46;1.15;;;0.80;;
70320;SDS011;61127;55.826;37.046;2023-05-29T07:48:13;3.13;;;0.95;;
70320;SDS011;61127;55.826;37.046;2023-05-29T07:50:41;2.17;;;0.90;;
70320;SDS011;61127;55.826;37.046;2023-05-29T07:53:07;2.55;;;0.80;;
70320;SDS011;61127;55.826;37.046;2023-05-29T07:55:39;1.17;;;0.80;;
70320;SDS011;61127;55.826;37.046;2023-05-29T07:58:05;1.73;;;0.80;;
70320;SDS011;61127;55.826;37.046;2023-05-29T08:00:32;1.55;;;1.00;;
70320;SDS011;61127;55.826;37.046;2023-05-29T08:03:01;2.13;;;1.00;;
70320;SDS011;61127;55.826;37.046;2023-05-29T08:05:31;1.90;;;0.80;;
70320;SDS011;61127;55.826;37.046;2023-05-29T08:07:59;3.03;;;0.97;;
70320;SDS011;61127;55.826;37.046;2023-05-29T08:10:27;1.20;;;0.90;;
70320;SDS011;61127;55.826;37.046;2023-05-29T08:12:53;1.05;;;0.82;;
70320;SDS011;61127;55.826;37.046;2023-05-29T08:15:19;1.67;;;1.00;;
70320;SDS011;61127;55.826;37.046;2023-05-29T08:17:46;2.42;;;1.20;;
70320;SDS011;61127;55.826;37.046;2023-05-29T08:20:12;2.03;;;1.07;;
70320;SDS011;61127;55.826;37.046;2023-05-29T08:22:38;2.53;;;0.95;;
70320;SDS011;61127;55.826;37.046;2023-05-29T08:25:04;1.02;;;0.85;;
70320;SDS011;61127;55.826;37.046;2023-05-29T08:27:31;2.53;;;1.00;;
70320;SDS011;61127;55.826;37.046;2023-05-29T08:29:57;5.03;;;1.17;;
70320;SDS011;61127;55.826;37.046;2023-05-29T08:32:23;1.08;;;1.00;;
70320;SDS011;61127;55.826;37.046;2023-05-29T08:34:49;1.58;;;1.10;;
70320;SDS011;61127;55.826;37.046;2023-05-29T08:37:16;3.22;;;1.00;;
70320;SDS011;61127;55.826;37.046;2023-05-29T08:39:42;2.37;;;1.20;;
70320;SDS011;61127;55.826;37.046;2023-05-29T08:42:13;2.17;;;1.30;;
70320;SDS011;61127;55.826;37.046;2023-05-29T08:44:55;2.30;;;1.20;;
70320;SDS011;61127;55.826;37.046;2023-05-29T08:47:26;2.53;;;1.20;;
70320;SDS011;61127;55.826;37.046;2023-05-29T08:49:54;2.15;;;1.20;;
70320;SDS011;61127;55.826;37.046;2023-05-29T08:52:24;2.93;;;1.30;;
70320;SDS011;61127;55.826;37.046;2023-05-29T08:54:51;1.83;;;1.10;;
70320;SDS011;61127;55.826;37.046;2023-05-29T08:57:21;6.30;;;1.08;;
70320;SDS011;61127;55.826;37.046;2023-05-29T08:59:47;2.40;;;1.23;;
70320;SDS011;61127;55.826;37.046;2023-05-29T09:02:17;2.47;;;1.38;;
70320;SDS011;61127;55.826;37.046;2023-05-29T09:04:45;3.27;;;1.23;;
70320;SDS011;61127;55.826;37.046;2023-05-29T09:07:13;2.22;;;1.35;;
70320;SDS011;61127;55.826;37.046;2023-05-29T09:09:39;2.65;;;1.35;;
70320;SDS011;61127;55.826;37.046;2023-05-29T09:12:06;1.83;;;1.10;;
70320;SDS011;61127;55.826;37.046;2023-05-29T09:14:36;3.33;;;1.30;;
70320;SDS011;61127;55.826;37.046;2023-05-29T09:17:05;1.37;;;1.27;;
70320;SDS011;61127;55.826;37.046;2023-05-29T09:19:32;3.25;;;1.38;;
70320;SDS011;61127;55.826;37.046;2023-05-29T09:22:00;1.95;;;1.38;;
70320;SDS011;61127;55.826;37.046;2023-05-29T09:24:30;5.75;;;1.40;;
70320;SDS011;61127;55.826;37.046;2023-05-29T09:27:01;2.20;;;1.42;;
70320;SDS011;61127;55.826;37.046;2023-05-29T09:29:30;2.03;;;1.50;;
70320;SDS011;61127;55.826;37.046;2023-05-29T09:31:59;2.83;;;1.40;;
70320;SDS011;61127;55.826;37.046;2023-05-29T09:34:26;1.73;;;1.63;;
70320;SDS011;61127;55.826;37.046;2023-05-29T09:36:53;2.83;;;1.60;;
70320;SDS011;61127;55.826;37.046;2023-05-29T09:39:28;2.55;;;1.48;;
70320;SDS011;61127;55.826;37.046;2023-05-29T09:41:54;1.93;;;1.30;;
70320;SDS011;61127;55.826;37.046;2023-05-29T09:44:20;3.00;;;1.58;;
70320;SDS011;61127;55.826;37.046;2023-05-29T09:46:48;2.55;;;1.38;;
70320;SDS011;61127;55.826;37.046;2023-05-29T09:49:14;1.90;;;1.70;;
70320;SDS011;61127;55.826;37.046;2023-05-29T09:51:42;2.87;;;1.50;;
70320;SDS011;61127;55.826;37.046;2023-05-29T09:54:16;1.92;;;1.58;;
70320;SDS011;61127;55.826;37.046;2023-05-29T09:56:43;3.20;;;1.70;;
70320;SDS011;61127;55.826;37.046;2023-05-29T09:59:11;3.20;;;1.77;;
70320;SDS011;61127;55.826;37.046;2023-05-29T10:01:42;3.58;;;1.83;;
70320;SDS011;61127;55.826;37.046;2023-05-29T10:04:12;2.20;;;1.70;;
70320;SDS011;61127;55.826;37.046;2023-05-29T10:06:45;3.63;;;1.90;;
70320;SDS011;61127;55.826;37.046;2023-05-29T10:09:15;4.13;;;1.70;;
70320;SDS011;61127;55.826;37.046;2023-05-29T10:11:45;1.83;;;1.73;;
70320;SDS011;61127;55.826;37.046;2023-05-29T10:14:14;4.82;;;2.05;;
70320;SDS011;61127;55.826;37.046;2023-05-29T10:16:48;2.10;;;1.90;;
70320;SDS011;61127;55.826;37.046;2023-05-29T10:19:18;4.20;;;2.20;;
70320;SDS011;61127;55.826;37.046;2023-05-29T10:21:50;3.38;;;1.90;;
70320;SDS011;61127;55.826;37.046;2023-05-29T10:24:19;4.65;;;2.00;;
70320;SDS011;61127;55.826;37.046;2023-05-29T10:26:47;3.53;;;2.15;;
70320;SDS011;61127;55.826;37.046;2023-05-29T10:29:28;5.03;;;1.80;;
70320;SDS011;61127;55.826;37.046;2023-05-29T10:40:22;3.13;;;2.35;;
70320;SDS011;61127;55.826;37.046;2023-05-29T10:42:52;3.10;;;2.30;;
70320;SDS011;61127;55.826;37.046;2023-05-29T10:47:56;2.80;;;2.60;;
70320;SDS011;61127;55.826;37.046;2023-05-29T10:50:42;3.40;;;2.20;;
70320;SDS011;61127;55.826;37.046;2023-05-29T10:53:10;2.90;;;2.60;;
70320;SDS011;61127;55.826;37.046;2023-05-29T10:55:42;2.70;;;2.20;;
70320;SDS011;61127;55.826;37.046;2023-05-29T10:58:20;2.60;;;2.35;;
70320;SDS011;61127;55.826;37.046;2023-05-29T11:00:52;4.95;;;2.70;;
70320;SDS011;61127;55.826;37.046;2023-05-29T11:03:21;3.05;;;2.30;;
70320;SDS011;61127;55.826;37.046;2023-05-29T11:08:44;2.80;;;2.50;;
70320;SDS011;61127;55.826;37.046;2023-05-29T11:11:13;2.75;;;2.40;;
70320;SDS011;61127;55.826;37.046;2023-05-29T11:14:03;3.20;;;2.92;;
70320;SDS011;61127;55.826;37.046;2023-05-29T11:18:58;2.90;;;2.55;;
70320;SDS011;61127;55.826;37.046;2023-05-29T11:24:01;3.55;;;3.00;;
70320;SDS011;61127;55.826;37.046;2023-05-29T11:26:28;6.20;;;3.28;;
70320;SDS011;61127;55.826;37.046;2023-05-29T11:28:59;6.45;;;3.25;;
70320;SDS011;61127;55.826;37.046;2023-05-29T11:31:27;4.78;;;3.25;;
70320;SDS011;61127;55.826;37.046;2023-05-29T11:33:58;4.87;;;3.40;;
70320;SDS011;61127;55.826;37.046;2023-05-29T11:36:25;5.82;;;3.80;;
70320;SDS011;61127;55.826;37.046;2023-05-29T11:38:53;3.97;;;3.67;;
70320;SDS011;61127;55.826;37.046;2023-05-29T11:41:19;4.10;;;3.80;;
70320;SDS011;61127;55.826;37.046;2023-05-29T11:43:59;5.28;;;4.20;;
70320;SDS011;61127;55.826;37.046;2023-05-29T11:46:27;4.43;;;4.03;;
70320;SDS011;61127;55.826;37.046;2023-05-29T11:48:58;5.50;;;4.20;;
70320;SDS011;61127;55.826;37.046;2023-05-29T11:51:25;4.45;;;3.70;;
70320;SDS011;61127;55.826;37.046;2023-05-29T11:53:51;5.47;;;3.80;;
70320;SDS011;61127;55.826;37.046;2023-05-29T11:56:27;5.63;;;3.90;;
70320;SDS011;61127;55.826;37.046;2023-05-29T11:58:54;5.20;;;4.20;;
70320;SDS011;61127;55.826;37.046;2023-05-29T12:01:23;4.40;;;4.00;;
70320;SDS011;61127;55.826;37.046;2023-05-29T12:03:50;4.65;;;4.25;;
70320;SDS011;61127;55.826;37.046;2023-05-29T12:06:33;5.75;;;4.25;;
70320;SDS011;61127;55.826;37.046;2023-05-29T12:09:02;5.00;;;4.60;;
70320;SDS011;61127;55.826;37.046;2023-05-29T12:11:30;4.67;;;4.10;;
70320;SDS011;61127;55.826;37.046;2023-05-29T12:13:59;4.80;;;4.03;;
70320;SDS011;61127;55.826;37.046;2023-05-29T12:16:27;6.25;;;4.10;;
70320;SDS011;61127;55.826;37.046;2023-05-29T12:18:59;4.22;;;3.83;;
70320;SDS011;61127;55.826;37.046;2023-05-29T12:21:26;3.90;;;3.60;;
70320;SDS011;61127;55.826;37.046;2023-05-29T12:23:56;3.80;;;3.50;;
70320;SDS011;61127;55.826;37.046;2023-05-29T12:26:23;3.88;;;3.58;;
70320;SDS011;61127;55.826;37.046;2023-05-29T12:28:51;4.38;;;4.07;;
70320;SDS011;61127;55.826;37.046;2023-05-29T12:31:27;3.65;;;3.35;;
70320;SDS011;61127;55.826;37.046;2023-05-29T12:33:58;4.10;;;3.30;;
70320;SDS011;61127;55.826;37.046;2023-05-29T12:36:27;3.33;;;2.97;;
70320;SDS011;61127;55.826;37.046;2023-05-29T12:38:54;7.25;;;3.30;;
70320;SDS011;61127;55.826;37.046;2023-05-29T12:41:29;3.85;;;3.25;;
70320;SDS011;61127;55.826;37.046;2023-05-29T12:44:01;3.80;;;3.38;;
70320;SDS011;61127;55.826;37.046;2023-05-29T12:46:34;5.03;;;3.20;;
70320;SDS011;61127;55.826;37.046;2023-05-29T12:49:16;6.90;;;3.63;;
70320;SDS011;61127;55.826;37.046;2023-05-29T12:51:46;4.00;;;3.28;;
70320;SDS011;61127;55.826;37.046;2023-05-29T12:54:14;6.50;;;3.50;;
70320;SDS011;61127;55.826;37.046;2023-05-29T12:56:41;4.40;;;3.30;;
70320;SDS011;61127;55.826;37.046;2023-05-29T12:59:07;3.72;;;3.20;;
70320;SDS011;61127;55.826;37.046;2023-05-29T13:01:34;3.10;;;2.80;;
70320;SDS011;61127;55.826;37.046;2023-05-29T13:04:01;4.82;;;2.85;;
70320;SDS011;61127;55.826;37.046;2023-05-29T13:06:27;3.10;;;2.90;;
70320;SDS011;61127;55.826;37.046;2023-05-29T13:08:53;4.18;;;3.25;;
70320;SDS011;61127;55.826;37.046;2023-05-29T13:11:19;3.33;;;3.00;;
70320;SDS011;61127;55.826;37.046;2023-05-29T13:13:48;5.93;;;2.97;;
70320;SDS011;61127;55.826;37.046;2023-05-29T13:16:13;7.20;;;3.17;;
70320;SDS011;61127;55.826;37.046;2023-05-29T13:18:40;4.90;;;3.00;;
70320;SDS011;61127;55.826;37.046;2023-05-29T13:21:06;3.15;;;2.80;;
70320;SDS011;61127;55.826;37.046;2023-05-29T13:23:32;2.70;;;2.50;;
70320;SDS011;61127;55.826;37.046;2023-05-29T13:25:59;2.70;;;2.08;;
70320;SDS011;61127;55.826;37.046;2023-05-29T13:28:25;2.83;;;2.28;;
70320;SDS011;61127;55.826;37.046;2023-05-29T13:30:52;3.58;;;2.13;;
70320;SDS011;61127;55.826;37.046;2023-05-29T13:33:18;3.95;;;2.10;;
70320;SDS011;61127;55.826;37.046;2023-05-29T13:35:44;3.30;;;1.63;;
70320;SDS011;61127;55.826;37.046;2023-05-29T13:38:10;4.38;;;2.08;;
70320;SDS011;61127;55.826;37.046;2023-05-29T13:40:36;2.47;;;1.67;;
70320;SDS011;61127;55.826;37.046;2023-05-29T13:43:02;3.17;;;1.75;;
70320;SDS011;61127;55.826;37.046;2023-05-29T13:45:29;3.75;;;1.48;;
70320;SDS011;61127;55.826;37.046;2023-05-29T13:47:55;8.67;;;1.73;;
70320;SDS011;61127;55.826;37.046;2023-05-29T13:50:22;3.47;;;1.50;;
70320;SDS011;61127;55.826;37.046;2023-05-29T13:52:50;3.03;;;1.52;;
70320;SDS011;61127;55.826;37.046;2023-05-29T13:55:16;1.90;;;1.30;;
70320;SDS011;61127;55.826;37.046;2023-05-29T13:57:48;4.95;;;1.60;;
70320;SDS011;61127;55.826;37.046;2023-05-29T14:00:14;2.97;;;1.47;;
70320;SDS011;61127;55.826;37.046;2023-05-29T14:02:41;3.47;;;1.52;;
70320;SDS011;61127;55.826;37.046;2023-05-29T14:05:07;5.03;;;1.40;;
70320;SDS011;61127;55.826;37.046;2023-05-29T14:07:34;2.92;;;1.30;;
70320;SDS011;61127;55.826;37.046;2023-05-29T14:10:01;3.28;;;1.30;;
70320;SDS011;61127;55.826;37.046;2023-05-29T14:12:31;1.73;;;1.20;;
70320;SDS011;61127;55.826;37.046;2023-05-29T14:14:57;3.92;;;1.20;;
70320;SDS011;61127;55.826;37.046;2023-05-29T14:17:23;3.22;;;1.33;;
70320;SDS011;61127;55.826;37.046;2023-05-29T14:19:51;3.20;;;1.45;;
70320;SDS011;61127;55.826;37.046;2023-05-29T14:22:17;4.40;;;1.42;;
70320;SDS011;61127;55.826;37.046;2023-05-29T14:24:45;3.00;;;1.40;;
70320;SDS011;61127;55.826;37.046;2023-05-29T14:27:11;4.80;;;1.20;;
70320;SDS011;61127;55.826;37.046;2023-05-29T14:29:37;2.38;;;1.10;;
70320;SDS011;61127;55.826;37.046;2023-05-29T14:32:03;3.83;;;1.10;;
70320;SDS011;61127;55.826;37.046;2023-05-29T14:34:29;1.67;;;1.20;;
70320;SDS011;61127;55.826;37.046;2023-05-29T14:36:56;2.08;;;1.08;;
70320;SDS011;61127;55.826;37.046;2023-05-29T14:39:22;2.60;;;1.08;;
70320;SDS011;61127;55.826;37.046;2023-05-29T14:41:48;6.68;;;1.30;;
70320;SDS011;61127;55.826;37.046;2023-05-29T14:44:14;2.65;;;1.48;;
70320;SDS011;61127;55.826;37.046;2023-05-29T14:46:40;1.80;;;1.00;;
70320;SDS011;61127;55.826;37.046;2023-05-29T14:49:06;2.22;;;1.30;;
70320;SDS011;61127;55.826;37.046;2023-05-29T14:51:32;2.55;;;1.27;;
70320;SDS011;61127;55.826;37.046;2023-05-29T14:53:58;3.83;;;1.20;;
70320;SDS011;61127;55.826;37.046;2023-05-29T14:56:24;4.90;;;1.40;;
70320;SDS011;61127;55.826;37.046;2023-05-29T14:58:50;4.22;;;1.20;;
70320;SDS011;61127;55.826;37.046;2023-05-29T15:01:18;2.58;;;1.10;;
70320;SDS011;61127;55.826;37.046;2023-05-29T15:03:44;4.20;;;1.13;;
70320;SDS011;61127;55.826;37.046;2023-05-29T15:06:11;1.70;;;1.08;;
70320;SDS011;61127;55.826;37.046;2023-05-29T15:08:38;1.97;;;1.03;;
70320;SDS011;61127;55.826;37.046;2023-05-29T15:11:08;2.85;;;1.00;;
70320;SDS011;61127;55.826;37.046;2023-05-29T15:13:35;1.33;;;1.10;;
70320;SDS011;61127;55.826;37.046;2023-05-29T15:16:01;2.83;;;1.30;;